createdAt,value
2017-03-13T00:00:39.710Z,6.8
2017-03-13T00:01:48.715Z,6.85
2017-03-13T00:02:57.733Z,6.78
2017-03-13T00:04:06.340Z,6.75
2017-03-13T00:05:15.349Z,6.76
2017-03-13T00:06:24.769Z,6.72
2017-03-13T00:07:33.390Z,6.67
2017-03-13T00:08:42.390Z,6.7
2017-03-13T00:09:51.006Z,6.64
2017-03-13T00:11:00.029Z,6.61
2017-03-13T00:12:09.048Z,6.55
2017-03-13T00:13:18.069Z,6.58
2017-03-13T00:14:27.075Z,6.51
2017-03-13T00:15:36.881Z,6.58
2017-03-13T00:16:45.513Z,6.57
2017-03-13T00:17:55.314Z,6.55
2017-03-13T00:19:04.725Z,6.55
2017-03-13T00:20:13.782Z,6.58
2017-03-13T00:21:23.197Z,6.6
2017-03-13T00:22:32.599Z,6.64
2017-03-13T00:23:42.017Z,6.58
2017-03-13T00:24:50.614Z,6.49
2017-03-13T00:25:59.230Z,6.57
2017-03-13T00:27:08.224Z,6.52
2017-03-13T00:28:17.237Z,6.49
2017-03-13T00:29:26.658Z,6.49
2017-03-13T00:30:36.066Z,6.52
2017-03-13T00:31:44.688Z,6.4
2017-03-13T00:32:54.098Z,6.47
2017-03-13T00:34:02.707Z,6.49
2017-03-13T00:35:11.763Z,6.49
2017-03-13T00:36:21.573Z,6.49
2017-03-13T00:37:30.991Z,6.54
2017-03-13T00:38:40.792Z,6.43
2017-03-13T00:39:49.824Z,6.52
2017-03-13T00:40:59.246Z,6.44
2017-03-13T00:42:08.262Z,6.52
2017-03-13T00:43:17.665Z,6.39
2017-03-13T00:44:27.476Z,6.39
2017-03-13T00:45:36.082Z,6.4
2017-03-13T00:46:45.092Z,6.44
2017-03-13T00:47:54.920Z,6.39
2017-03-13T00:49:03.532Z,6.54
2017-03-13T00:50:12.944Z,6.6
2017-03-13T00:51:21.941Z,6.6
2017-03-13T00:52:31.346Z,6.64
2017-03-13T00:53:41.166Z,6.6
2017-03-13T00:54:50.576Z,6.68
2017-03-13T00:55:59.632Z,6.78
2017-03-13T00:57:08.633Z,6.8
2017-03-13T00:58:18.030Z,6.72
2017-03-13T00:59:27.042Z,6.76
2017-03-13T01:00:36.452Z,6.79
2017-03-13T01:01:45.865Z,6.85
2017-03-13T01:02:55.711Z,6.85
2017-03-13T01:04:04.706Z,6.85
2017-03-13T01:05:13.723Z,6.76
2017-03-13T01:06:23.156Z,6.79
2017-03-13T01:07:31.800Z,6.7
2017-03-13T01:08:40.808Z,6.67
2017-03-13T01:09:50.623Z,6.78
2017-03-13T01:10:59.637Z,6.68
2017-03-13T01:12:09.043Z,6.68
2017-03-13T01:13:18.440Z,6.64
2017-03-13T01:14:27.434Z,6.61
2017-03-13T01:15:36.044Z,6.55
2017-03-13T01:16:45.050Z,6.58
2017-03-13T01:17:54.046Z,6.42
2017-03-13T01:19:03.455Z,6.42
2017-03-13T01:20:13.265Z,6.25
2017-03-13T01:21:21.869Z,6.26
2017-03-13T01:22:30.883Z,6.21
2017-03-13T01:23:40.275Z,6.06
2017-03-13T01:24:49.346Z,6.09
2017-03-13T01:25:58.349Z,5.96
2017-03-13T01:27:06.976Z,5.98
2017-03-13T01:28:16.023Z,5.81
2017-03-13T01:29:25.421Z,5.85
2017-03-13T01:30:34.833Z,5.81
2017-03-13T01:31:43.449Z,5.81
2017-03-13T01:32:52.063Z,5.78
2017-03-13T01:34:01.076Z,5.72
2017-03-13T01:35:10.887Z,5.81
2017-03-13T01:36:19.507Z,5.75
2017-03-13T01:37:28.108Z,5.75
2017-03-13T01:38:37.112Z,5.8
2017-03-13T01:39:46.127Z,5.69
2017-03-13T01:40:55.139Z,5.67
2017-03-13T01:42:03.793Z,5.69
2017-03-13T01:43:12.792Z,5.66
2017-03-13T01:44:21.806Z,5.7
2017-03-13T01:45:31.204Z,5.7
2017-03-13T01:46:40.636Z,5.66
2017-03-13T01:47:49.654Z,5.69
2017-03-13T01:48:58.665Z,5.69
2017-03-13T01:50:08.075Z,5.67
2017-03-13T01:51:17.874Z,5.67
2017-03-13T01:52:27.304Z,5.69
2017-03-13T01:53:36.325Z,5.64
2017-03-13T01:54:45.322Z,5.67
2017-03-13T01:55:54.322Z,5.64
2017-03-13T01:57:02.950Z,5.7
2017-03-13T01:58:12.767Z,5.7
2017-03-13T01:59:21.787Z,5.64
2017-03-13T02:00:31.209Z,5.66
2017-03-13T02:01:40.210Z,5.67
2017-03-13T02:02:49.224Z,5.62
2017-03-13T02:03:58.625Z,5.66
2017-03-13T02:05:07.627Z,5.67
2017-03-13T02:06:16.652Z,5.64
2017-03-13T02:07:26.086Z,5.67
2017-03-13T02:08:35.099Z,5.67
2017-03-13T02:09:44.140Z,5.7
2017-03-13T02:10:53.939Z,5.69
2017-03-13T02:12:03.330Z,5.78
2017-03-13T02:13:12.751Z,5.75
2017-03-13T02:14:21.777Z,5.75
2017-03-13T02:15:30.835Z,5.73
2017-03-13T02:16:40.642Z,5.73
2017-03-13T02:17:49.640Z,5.64
2017-03-13T02:18:58.641Z,5.72
2017-03-13T02:20:08.054Z,5.72
2017-03-13T02:21:17.054Z,5.78
2017-03-13T02:22:26.067Z,5.77
2017-03-13T02:23:34.679Z,5.67
2017-03-13T02:24:43.692Z,5.69
2017-03-13T02:25:52.292Z,5.84
2017-03-13T02:27:01.687Z,5.73
2017-03-13T02:28:10.688Z,5.7
2017-03-13T02:29:19.295Z,5.64
2017-03-13T02:30:28.705Z,5.7
2017-03-13T02:31:37.710Z,5.64
2017-03-13T02:32:46.721Z,5.77
2017-03-13T02:33:56.516Z,5.7
2017-03-13T02:35:05.524Z,5.69
2017-03-13T02:36:14.141Z,5.64
2017-03-13T02:37:23.544Z,5.62
2017-03-13T02:38:32.563Z,5.69
2017-03-13T02:39:41.587Z,5.69
2017-03-13T02:40:50.991Z,5.64
2017-03-13T02:41:59.616Z,5.52
2017-03-13T02:43:08.623Z,5.57
2017-03-13T02:44:18.024Z,5.51
2017-03-13T02:45:27.440Z,5.46
2017-03-13T02:46:36.845Z,5.49
2017-03-13T02:47:46.269Z,5.41
2017-03-13T02:48:55.271Z,5.39
2017-03-13T02:50:04.264Z,5.39
2017-03-13T02:51:13.280Z,5.37
2017-03-13T02:52:22.680Z,5.34
2017-03-13T02:53:31.680Z,5.36
2017-03-13T02:54:40.282Z,5.31
2017-03-13T02:55:49.723Z,5.33
2017-03-13T02:56:59.177Z,5.37
2017-03-13T02:58:08.567Z,5.2
2017-03-13T02:59:17.972Z,5.18
2017-03-13T03:00:27.776Z,5.16
2017-03-13T03:01:36.384Z,5.24
2017-03-13T03:02:44.995Z,5.16
2017-03-13T03:03:53.997Z,5.2
2017-03-13T03:05:02.998Z,5.16
2017-03-13T03:06:13.213Z,5.2
2017-03-13T03:07:21.812Z,5.18
2017-03-13T03:08:30.808Z,5.15
2017-03-13T03:09:40.610Z,5.12
2017-03-13T03:10:49.613Z,5.18
2017-03-13T03:11:58.633Z,5.16
2017-03-13T03:13:07.247Z,5.13
2017-03-13T03:14:16.659Z,5.13
2017-03-13T03:15:25.715Z,5.2
2017-03-13T03:16:34.338Z,5.18
2017-03-13T03:17:43.343Z,5.15
2017-03-13T03:18:53.152Z,5.09
2017-03-13T03:20:02.569Z,5.21
2017-03-13T03:21:11.992Z,5.18
2017-03-13T03:22:21.001Z,5.08
2017-03-13T03:23:30.405Z,5.16
2017-03-13T03:24:39.403Z,5.08
2017-03-13T03:25:48.008Z,5.08
2017-03-13T03:26:57.021Z,5.08
2017-03-13T03:28:07.220Z,5.08
2017-03-13T03:29:16.636Z,5.06
2017-03-13T03:30:25.637Z,4.98
2017-03-13T03:31:35.486Z,5.05
2017-03-13T03:32:45.514Z,5.03
2017-03-13T03:33:54.537Z,4.98
2017-03-13T03:35:03.543Z,5.02
2017-03-13T03:36:12.159Z,5.02
2017-03-13T03:37:21.567Z,4.98
2017-03-13T03:38:30.962Z,5
2017-03-13T03:39:40.368Z,5.03
2017-03-13T03:40:48.980Z,4.97
2017-03-13T03:41:57.598Z,5
2017-03-13T03:43:06.636Z,4.95
2017-03-13T03:44:15.251Z,4.95
2017-03-13T03:45:24.670Z,5.09
2017-03-13T03:46:33.686Z,5.05
2017-03-13T03:47:42.705Z,4.95
2017-03-13T03:48:52.101Z,4.98
2017-03-13T03:50:00.717Z,5.06
2017-03-13T03:51:10.110Z,5.1
2017-03-13T03:52:18.728Z,4.98
2017-03-13T03:53:28.140Z,5.05
2017-03-13T03:54:37.550Z,5.03
2017-03-13T03:55:46.161Z,5.09
2017-03-13T03:56:54.774Z,5.1
2017-03-13T03:58:03.807Z,4.95
2017-03-13T03:59:12.409Z,5.02
2017-03-13T04:00:21.828Z,5.05
2017-03-13T04:01:30.833Z,5.03
2017-03-13T04:02:40.247Z,5.13
2017-03-13T04:03:49.289Z,5.03
2017-03-13T04:04:58.289Z,5.02
2017-03-13T04:06:06.894Z,5.05
2017-03-13T04:07:16.318Z,4.98
2017-03-13T04:08:25.321Z,5.03
2017-03-13T04:09:34.334Z,5.08
2017-03-13T04:10:42.941Z,4.98
2017-03-13T04:11:51.961Z,5.02
2017-03-13T04:13:00.962Z,5.05
2017-03-13T04:14:09.985Z,4.97
2017-03-13T04:15:19.033Z,5.03
2017-03-13T04:16:28.464Z,4.91
2017-03-13T04:17:38.662Z,5
2017-03-13T04:18:48.510Z,4.88
2017-03-13T04:19:57.133Z,4.85
2017-03-13T04:21:06.149Z,4.95
2017-03-13T04:22:14.760Z,4.92
2017-03-13T04:23:23.770Z,4.75
2017-03-13T04:24:32.805Z,4.74
2017-03-13T04:25:42.209Z,4.76
2017-03-13T04:26:51.641Z,4.83
2017-03-13T04:28:00.642Z,4.78
2017-03-13T04:29:10.061Z,4.84
2017-03-13T04:30:19.087Z,4.74
2017-03-13T04:31:27.696Z,4.78
2017-03-13T04:32:36.308Z,4.78
2017-03-13T04:33:45.351Z,4.76
2017-03-13T04:34:54.407Z,4.79
2017-03-13T04:36:03.805Z,4.69
2017-03-13T04:37:12.412Z,4.66
2017-03-13T04:38:21.813Z,4.68
2017-03-13T04:39:31.213Z,4.74
2017-03-13T04:40:40.210Z,4.64
2017-03-13T04:41:50.030Z,4.61
2017-03-13T04:42:59.029Z,4.69
2017-03-13T04:44:07.633Z,4.65
2017-03-13T04:45:16.257Z,4.74
2017-03-13T04:46:25.677Z,4.76
2017-03-13T04:47:35.076Z,4.66
2017-03-13T04:48:44.883Z,4.69
2017-03-13T04:49:53.483Z,4.68
2017-03-13T04:51:02.890Z,4.65
2017-03-13T04:52:12.318Z,4.61
2017-03-13T04:53:21.728Z,4.61
2017-03-13T04:54:30.735Z,4.66
2017-03-13T04:55:39.338Z,4.65
2017-03-13T04:56:48.745Z,4.65
2017-03-13T04:57:57.389Z,4.64
2017-03-13T04:59:05.993Z,4.64
2017-03-13T05:00:14.986Z,4.64
2017-03-13T05:01:24.399Z,4.64
2017-03-13T05:02:33.823Z,4.6
2017-03-13T05:03:43.237Z,4.64
2017-03-13T05:04:53.037Z,4.68
2017-03-13T05:06:01.670Z,4.64
2017-03-13T05:07:11.477Z,4.64
2017-03-13T05:08:20.483Z,4.68
2017-03-13T05:09:29.491Z,4.65
2017-03-13T05:10:39.288Z,4.68
2017-03-13T05:11:48.289Z,4.65
2017-03-13T05:12:58.114Z,4.64
2017-03-13T05:14:07.112Z,4.6
2017-03-13T05:15:16.516Z,4.6
2017-03-13T05:16:25.111Z,4.64
2017-03-13T05:17:34.106Z,4.58
2017-03-13T05:18:43.518Z,4.57
2017-03-13T05:19:52.923Z,4.61
2017-03-13T05:21:02.334Z,4.57
2017-03-13T05:22:11.346Z,4.47
2017-03-13T05:23:20.362Z,4.57
2017-03-13T05:24:30.575Z,4.51
2017-03-13T05:25:39.202Z,4.53
2017-03-13T05:26:48.237Z,4.48
2017-03-13T05:27:57.643Z,4.5
2017-03-13T05:29:07.038Z,4.54
2017-03-13T05:30:15.635Z,4.51
2017-03-13T05:31:24.665Z,4.48
2017-03-13T05:32:33.697Z,4.5
2017-03-13T05:33:42.714Z,4.51
2017-03-13T05:34:51.331Z,4.57
2017-03-13T05:35:59.972Z,4.48
2017-03-13T05:37:08.587Z,4.5
2017-03-13T05:38:17.234Z,4.47
2017-03-13T05:39:25.863Z,4.51
2017-03-13T05:40:34.484Z,4.51
2017-03-13T05:41:43.896Z,4.5
2017-03-13T05:42:52.900Z,4.53
2017-03-13T05:44:02.310Z,4.57
2017-03-13T05:45:10.923Z,4.54
2017-03-13T05:46:19.542Z,4.5
2017-03-13T05:47:28.162Z,4.51
2017-03-13T05:48:37.180Z,4.51
2017-03-13T05:49:46.580Z,4.53
2017-03-13T05:50:56.000Z,4.5
2017-03-13T05:52:04.593Z,4.48
2017-03-13T05:53:13.208Z,4.5
2017-03-13T05:54:22.612Z,4.48
2017-03-13T05:55:31.212Z,4.54
2017-03-13T05:56:40.234Z,4.57
2017-03-13T05:57:49.299Z,4.5
2017-03-13T05:58:59.276Z,4.54
2017-03-13T06:00:08.705Z,4.54
2017-03-13T06:01:18.113Z,4.51
2017-03-13T06:02:26.741Z,4.5
2017-03-13T06:03:35.775Z,4.47
2017-03-13T06:04:44.790Z,4.6
2017-03-13T06:05:53.811Z,4.6
2017-03-13T06:07:02.812Z,4.61
2017-03-13T06:08:11.851Z,4.68
2017-03-13T06:09:20.474Z,4.64
2017-03-13T06:10:30.278Z,4.61
2017-03-13T06:11:39.691Z,4.61
2017-03-13T06:12:49.117Z,4.69
2017-03-13T06:13:57.718Z,4.74
2017-03-13T06:15:07.522Z,4.78
2017-03-13T06:16:16.531Z,4.83
2017-03-13T06:17:25.537Z,4.72
2017-03-13T06:18:34.537Z,4.79
2017-03-13T06:19:43.543Z,4.91
2017-03-13T06:20:53.761Z,4.88
2017-03-13T06:22:02.771Z,4.85
2017-03-13T06:23:12.178Z,4.9
2017-03-13T06:24:20.775Z,4.98
2017-03-13T06:25:30.226Z,5.08
2017-03-13T06:26:39.621Z,5.09
2017-03-13T06:27:48.644Z,4.98
2017-03-13T06:28:57.254Z,5.08
2017-03-13T06:30:06.281Z,5.08
2017-03-13T06:31:15.278Z,5.09
2017-03-13T06:32:24.292Z,5.12
2017-03-13T06:33:32.943Z,5.09
2017-03-13T06:34:42.369Z,5.16
2017-03-13T06:35:51.785Z,5.15
2017-03-13T06:37:00.710Z,5.27
2017-03-13T06:38:09.731Z,5.26
2017-03-13T06:39:18.738Z,5.31
2017-03-13T06:40:27.370Z,5.21
2017-03-13T06:41:36.395Z,5.37
2017-03-13T06:42:45.409Z,5.45
2017-03-13T06:43:54.410Z,5.44
2017-03-13T06:45:03.882Z,5.49
2017-03-13T06:46:12.492Z,5.49
2017-03-13T06:47:21.857Z,5.46
2017-03-13T06:48:30.629Z,5.64
2017-03-13T06:49:40.048Z,5.63
2017-03-13T06:50:49.071Z,5.66
2017-03-13T06:51:58.497Z,5.66
2017-03-13T06:53:07.505Z,5.75
2017-03-13T06:54:17.303Z,5.77
2017-03-13T06:55:26.716Z,5.8
2017-03-13T06:56:35.748Z,5.85
2017-03-13T06:57:44.620Z,5.87
2017-03-13T06:58:54.046Z,5.87
2017-03-13T07:00:02.648Z,5.81
2017-03-13T07:01:11.256Z,5.91
2017-03-13T07:02:21.075Z,5.89
2017-03-13T07:03:30.099Z,5.96
2017-03-13T07:04:38.693Z,6
2017-03-13T07:05:47.710Z,6.02
2017-03-13T07:06:56.763Z,5.98
2017-03-13T07:08:06.981Z,6.14
2017-03-13T07:09:16.703Z,6.15
2017-03-13T07:10:26.116Z,6.18
2017-03-13T07:11:35.923Z,6.24
2017-03-13T07:12:44.539Z,6.24
2017-03-13T07:13:53.167Z,6.28
2017-03-13T07:15:02.171Z,6.28
2017-03-13T07:16:11.988Z,6.4
2017-03-13T07:17:22.197Z,6.34
2017-03-13T07:18:31.634Z,6.46
2017-03-13T07:19:40.545Z,6.42
2017-03-13T07:20:50.751Z,6.51
2017-03-13T07:22:00.156Z,6.54
2017-03-13T07:23:09.180Z,6.54
2017-03-13T07:24:18.590Z,6.64
2017-03-13T07:25:27.240Z,6.58
2017-03-13T07:26:36.244Z,6.64
2017-03-13T07:27:45.264Z,6.58
2017-03-13T07:28:54.277Z,6.58
2017-03-13T07:30:03.951Z,6.6
2017-03-13T07:31:13.016Z,6.64
2017-03-13T07:32:22.032Z,6.75
2017-03-13T07:33:31.848Z,6.7
2017-03-13T07:34:40.861Z,6.72
2017-03-13T07:35:49.522Z,6.73
2017-03-13T07:36:58.535Z,6.76
2017-03-13T07:38:07.149Z,6.76
2017-03-13T07:39:16.156Z,6.85
2017-03-13T07:40:25.978Z,6.79
2017-03-13T07:41:35.305Z,6.78
2017-03-13T07:42:44.307Z,6.82
2017-03-13T07:43:53.333Z,6.83
2017-03-13T07:45:02.767Z,6.86
2017-03-13T07:46:11.385Z,6.9
2017-03-13T07:47:20.813Z,6.94
2017-03-13T07:48:30.577Z,6.94
2017-03-13T07:49:39.636Z,7.01
2017-03-13T07:50:48.635Z,7
2017-03-13T07:51:57.562Z,6.98
2017-03-13T07:53:07.338Z,6.97
